createdAt,value
2022-09-22T00:01:16.935Z,82.52
2022-09-22T00:04:09.286Z,82.70
2022-09-22T00:06:58.558Z,82.04
2022-09-22T00:09:40.966Z,81.99
2022-09-22T00:12:30.892Z,82.57
2022-09-22T00:15:13.393Z,82.49
2022-09-22T00:17:54.942Z,82.45
2022-09-22T00:20:40.433Z,82.43
2022-09-22T00:23:28.865Z,82.38
2022-09-22T00:26:23.671Z,82.91
2022-09-22T00:29:06.959Z,82.84
2022-09-22T00:31:55.942Z,83.06
2022-09-22T00:34:45.016Z,82.42
2022-09-22T00:37:27.257Z,83.04
2022-09-22T00:40:17.921Z,82.71
2022-09-22T00:43:26.946Z,82.43
2022-09-22T00:46:20.931Z,82.86
2022-09-22T00:49:13.236Z,82.62
2022-09-22T00:51:55.891Z,82.25
2022-09-22T00:54:39.522Z,82.02
2022-09-22T00:57:34.968Z,82.46
2022-09-22T01:00:24.329Z,82.66
2022-09-22T01:03:08.960Z,82.98
2022-09-22T01:05:54.215Z,82.54
2022-09-22T01:08:44.961Z,82.70
2022-09-22T01:11:29.023Z,82.80
2022-09-22T01:14:59.957Z,81.85
2022-09-22T01:17:54.277Z,81.62
2022-09-22T01:20:48.952Z,81.91
2022-09-22T01:23:57.957Z,81.95
2022-09-22T01:27:14.935Z,81.65
2022-09-22T01:30:12.013Z,81.46
2022-09-22T01:33:19.989Z,81.83
2022-09-22T01:36:10.920Z,81.57
2022-09-22T01:39:19.937Z,81.73
2022-09-22T01:42:14.835Z,81.45
2022-09-22T01:45:08.241Z,81.52
2022-09-22T01:48:04.937Z,81.11
2022-09-22T01:51:26.948Z,81.56
2022-09-22T01:54:42.334Z,80.70
2022-09-22T01:57:37.953Z,81.33
2022-09-22T02:00:20.854Z,80.71
2022-09-22T02:03:20.960Z,79.83
2022-09-22T02:06:12.201Z,78.66
2022-09-22T02:09:16.997Z,78.72
2022-09-22T02:12:07.337Z,78.89
2022-09-22T02:14:49.936Z,78.32
2022-09-22T02:17:35.380Z,80.05
2022-09-22T02:20:24.932Z,79.40
2022-09-22T02:23:13.965Z,78.90
2022-09-22T02:26:03.949Z,77.80
2022-09-22T02:28:53.232Z,77.91
2022-09-22T02:31:39.020Z,79.50
2022-09-22T02:34:27.228Z,80.13
2022-09-22T02:37:21.955Z,79.44
2022-09-22T02:40:47.097Z,79.32
2022-09-22T02:43:56.245Z,78.66
2022-09-22T02:46:56.945Z,78.46
2022-09-22T02:49:45.952Z,77.63
2022-09-22T02:52:37.938Z,77.43
2022-09-22T02:55:26.963Z,76.76
2022-09-22T02:58:09.202Z,76.22
2022-09-22T03:00:57.955Z,76.98
2022-09-22T03:03:40.244Z,76.16
2022-09-22T03:06:28.953Z,75.91
2022-09-22T03:09:11.281Z,76.16
2022-09-22T03:11:59.963Z,75.64
2022-09-22T03:14:42.423Z,76.18
2022-09-22T03:17:30.946Z,76.18
2022-09-22T03:20:14.195Z,74.11
2022-09-22T03:23:02.956Z,75.86
2022-09-22T03:25:45.236Z,74.34
2022-09-22T03:28:33.954Z,74.29
2022-09-22T03:31:16.229Z,72.06
2022-09-22T03:34:04.953Z,72.35
2022-09-22T03:36:53.930Z,73.10
2022-09-22T03:39:42.938Z,72.20
2022-09-22T03:42:31.948Z,71.96
2022-09-22T03:45:14.229Z,72.98
2022-09-22T03:48:02.951Z,71.69
2022-09-22T03:50:45.104Z,72.16
2022-09-22T03:53:33.979Z,70.43
2022-09-22T03:56:17.752Z,70.18
2022-09-22T03:59:06.938Z,69.59
2022-09-22T04:01:49.274Z,70.32
2022-09-22T04:04:37.933Z,68.66
2022-09-22T04:07:26.952Z,67.90
2022-09-22T04:10:15.843Z,68.54
2022-09-22T04:13:05.314Z,69.21
2022-09-22T04:15:46.864Z,66.64
2022-09-22T04:18:30.579Z,66.65
2022-09-22T04:21:20.862Z,65.94
2022-09-22T04:24:11.970Z,64.80
2022-09-22T04:27:18.682Z,64.63
2022-09-22T04:30:10.837Z,62.79
2022-09-22T04:32:59.894Z,61.42
2022-09-22T04:35:48.860Z,61.10
2022-09-22T04:38:37.291Z,60.60
2022-09-22T04:41:18.937Z,60.83
2022-09-22T04:44:07.247Z,58.25
2022-09-22T04:46:54.017Z,56.88
2022-09-22T04:49:43.223Z,60.43
2022-09-22T04:52:24.955Z,59.11
2022-09-22T04:55:14.392Z,57.61
2022-09-22T04:58:00.873Z,59.31
2022-09-22T05:00:49.962Z,57.07
2022-09-22T05:03:32.505Z,55.11
2022-09-22T05:06:20.966Z,55.84
2022-09-22T05:09:04.235Z,55.98
2022-09-22T05:11:52.949Z,52.46
2022-09-22T05:14:56.812Z,53.94
2022-09-22T05:17:45.992Z,54.67
2022-09-22T05:20:30.229Z,54.89
2022-09-22T05:23:18.986Z,56.30
2022-09-22T05:26:02.079Z,54.05
2022-09-22T05:28:50.980Z,52.53
2022-09-22T05:31:33.702Z,51.78
2022-09-22T05:34:22.831Z,49.22
2022-09-22T05:37:05.425Z,53.57
2022-09-22T05:39:53.950Z,51.22
2022-09-22T05:42:36.413Z,52.81
2022-09-22T05:45:26.010Z,52.81
2022-09-22T05:48:31.014Z,52.89
2022-09-22T05:51:19.949Z,50.83
2022-09-22T05:54:02.222Z,50.42
2022-09-22T05:56:50.861Z,50.89
2022-09-22T05:59:39.836Z,51.26
2022-09-22T06:02:26.091Z,51.54
2022-09-22T06:05:18.226Z,52.91
2022-09-22T06:08:07.401Z,51.33
2022-09-22T06:10:58.854Z,51.05
2022-09-22T06:13:41.127Z,49.18
2022-09-22T06:16:29.991Z,48.67
2022-09-22T06:19:18.841Z,51.89
2022-09-22T06:22:07.929Z,49.00
2022-09-22T06:24:50.156Z,50.97
2022-09-22T06:27:38.929Z,50.15
2022-09-22T06:30:27.228Z,49.48
2022-09-22T06:33:09.856Z,51.29
2022-09-22T06:35:52.192Z,51.20
2022-09-22T06:38:40.947Z,52.21
2022-09-22T06:41:29.841Z,51.51
2022-09-22T06:44:19.861Z,53.73
2022-09-22T06:47:12.535Z,49.31
2022-09-22T06:49:54.864Z,49.57
2022-09-22T06:52:40.649Z,50.14
2022-09-22T06:55:29.959Z,52.85
2022-09-22T06:58:12.810Z,52.25
2022-09-22T07:01:04.223Z,49.73
2022-09-22T07:03:54.969Z,53.68
2022-09-22T07:06:44.853Z,49.49
2022-09-22T07:09:33.873Z,49.14
2022-09-22T07:12:16.433Z,51.02
2022-09-22T07:15:05.871Z,49.65
2022-09-22T07:17:49.164Z,47.97
2022-09-22T07:20:37.921Z,48.29
2022-09-22T07:23:22.158Z,51.69
2022-09-22T07:26:14.924Z,49.69
2022-09-22T07:29:01.247Z,51.25
2022-09-22T07:31:51.077Z,50.40
2022-09-22T07:34:34.254Z,47.86
2022-09-22T07:37:23.851Z,49.04
2022-09-22T07:40:06.233Z,47.61
2022-09-22T07:42:57.957Z,49.35
2022-09-22T07:45:40.229Z,50.59
2022-09-22T07:48:46.890Z,50.51
2022-09-22T07:51:35.072Z,50.54
2022-09-22T07:54:23.864Z,49.09
2022-09-22T07:57:09.746Z,49.18
2022-09-22T07:59:58.847Z,49.37
2022-09-22T08:02:47.219Z,48.57
2022-09-22T08:05:37.926Z,49.93
2022-09-22T08:08:26.951Z,49.23
2022-09-22T08:11:22.852Z,49.31
2022-09-22T08:14:21.871Z,49.08
2022-09-22T08:17:13.355Z,51.17
2022-09-22T08:19:54.961Z,51.94
2022-09-22T08:22:37.381Z,48.78
2022-09-22T08:25:25.932Z,49.99
2022-09-22T08:28:20.811Z,50.51
2022-09-22T08:31:10.942Z,49.71
2022-09-22T08:33:56.398Z,53.03
2022-09-22T08:36:45.851Z,48.76
2022-09-22T08:39:28.380Z,51.21
2022-09-22T08:42:16.877Z,49.78
2022-09-22T08:45:29.251Z,48.75
2022-09-22T08:48:45.998Z,49.24
2022-09-22T08:51:56.161Z,50.00
2022-09-22T08:54:45.921Z,49.48
2022-09-22T08:57:43.210Z,48.33
2022-09-22T09:00:33.865Z,48.61
2022-09-22T09:03:50.035Z,48.59
2022-09-22T09:07:05.150Z,48.02
2022-09-22T09:10:22.848Z,51.28
2022-09-22T09:13:28.139Z,49.10
2022-09-22T09:16:37.789Z,48.99
2022-09-22T09:19:56.869Z,50.48
2022-09-22T09:22:54.857Z,53.76
2022-09-22T09:25:51.951Z,54.63
2022-09-22T09:28:47.248Z,51.45
2022-09-22T09:31:36.018Z,53.17
2022-09-22T09:34:27.851Z,50.64
2022-09-22T09:37:27.939Z,50.62
2022-09-22T09:40:24.924Z,52.28
2022-09-22T09:43:17.921Z,54.27
2022-09-22T09:46:26.974Z,55.44
2022-09-22T09:49:31.012Z,54.82
2022-09-22T09:52:21.261Z,53.93
2022-09-22T09:55:03.990Z,54.11
2022-09-22T09:58:37.017Z,52.97
2022-09-22T10:01:22.931Z,51.26
2022-09-22T10:04:11.991Z,52.41
2022-09-22T10:06:55.246Z,50.37
2022-09-22T10:09:44.304Z,49.70
2022-09-22T10:12:32.343Z,50.95
2022-09-22T10:15:32.066Z,51.05
2022-09-22T10:18:32.208Z,50.37
2022-09-22T10:21:24.943Z,52.93
2022-09-22T10:24:14.995Z,52.09
2022-09-22T10:26:59.486Z,51.34
2022-09-22T10:29:49.848Z,49.54
2022-09-22T10:32:32.160Z,50.21
2022-09-22T10:35:43.925Z,48.76
2022-09-22T10:38:30.496Z,52.65
2022-09-22T10:41:20.929Z,53.27
2022-09-22T10:44:35.015Z,53.69
2022-09-22T10:47:50.014Z,51.69
2022-09-22T10:51:28.310Z,50.89
2022-09-22T10:54:37.926Z,52.56
2022-09-22T10:57:39.335Z,50.40
2022-09-22T11:00:35.253Z,53.38
2022-09-22T11:03:56.887Z,55.62
2022-09-22T11:07:35.537Z,55.57
2022-09-22T11:11:05.935Z,54.77
2022-09-22T11:14:03.192Z,55.80
2022-09-22T11:17:13.863Z,58.01
2022-09-22T11:20:11.930Z,56.62
2022-09-22T11:23:32.938Z,58.27
2022-09-22T11:26:54.008Z,59.58
2022-09-22T11:30:11.469Z,57.30
2022-09-22T11:33:10.932Z,58.08
2022-09-22T11:36:16.859Z,58.87
2022-09-22T11:39:28.372Z,58.56
2022-09-22T11:42:27.858Z,59.26
2022-09-22T11:45:36.193Z,59.51
2022-09-22T11:48:40.016Z,59.71
2022-09-22T11:51:46.210Z,60.17
2022-09-22T11:54:37.950Z,60.92
2022-09-22T11:57:32.848Z,59.64
2022-09-22T12:00:27.832Z,60.43
2022-09-22T12:03:19.270Z,59.83
2022-09-22T12:06:20.844Z,60.03
2022-09-22T12:09:13.474Z,59.19
2022-09-22T12:11:55.850Z,58.67
2022-09-22T12:14:45.271Z,58.42
2022-09-22T12:17:34.930Z,58.08
2022-09-22T12:20:39.663Z,57.95
2022-09-22T12:23:32.938Z,57.97
2022-09-22T12:26:26.038Z,58.42
2022-09-22T12:29:16.928Z,60.75
2022-09-22T12:32:00.838Z,64.85
2022-09-22T12:34:53.866Z,67.42
2022-09-22T12:37:46.930Z,70.36
2022-09-22T12:40:42.599Z,72.20
2022-09-22T12:43:32.886Z,72.25
2022-09-22T12:46:34.366Z,74.43
2022-09-22T12:49:30.895Z,74.21
2022-09-22T12:52:45.240Z,75.24
2022-09-22T12:55:35.951Z,76.12
2022-09-22T12:58:33.912Z,76.22
2022-09-22T13:01:33.899Z,74.71
2022-09-22T13:04:31.939Z,74.99
2022-09-22T13:07:49.894Z,74.78
2022-09-22T13:10:38.934Z,74.29
2022-09-22T13:13:44.714Z,75.08
2022-09-22T13:16:33.910Z,74.44
2022-09-22T13:19:24.415Z,73.23
2022-09-22T13:22:25.948Z,74.65
2022-09-22T13:25:37.253Z,74.15
2022-09-22T13:28:34.085Z,73.94
2022-09-22T13:31:26.216Z,73.12
2022-09-22T13:34:23.934Z,72.99
2022-09-22T13:37:20.227Z,74.94
2022-09-22T13:40:02.968Z,72.64
2022-09-22T13:42:53.453Z,70.16
2022-09-22T13:45:38.658Z,70.97
2022-09-22T13:48:28.908Z,70.63
2022-09-22T13:51:16.003Z,71.04
2022-09-22T13:54:06.002Z,71.04
2022-09-22T13:56:48.259Z,71.81
2022-09-22T13:59:50.995Z,71.61
2022-09-22T14:02:35.344Z,70.98
2022-09-22T14:05:29.916Z,71.92
2022-09-22T14:08:17.099Z,71.30
2022-09-22T14:11:09.872Z,71.50
2022-09-22T14:14:01.753Z,70.32
2022-09-22T14:16:57.023Z,69.23
2022-09-22T14:19:45.516Z,69.86
2022-09-22T14:22:36.993Z,68.91
2022-09-22T14:25:30.896Z,69.63
2022-09-22T14:28:29.840Z,69.86
2022-09-22T14:31:23.373Z,70.15
2022-09-22T14:34:05.961Z,70.28
2022-09-22T14:36:58.231Z,70.51
2022-09-22T14:39:42.937Z,70.63
2022-09-22T14:42:30.704Z,69.96
2022-09-22T14:45:26.038Z,70.38
2022-09-22T14:48:40.901Z,71.22
2022-09-22T14:51:38.257Z,70.62
2022-09-22T14:54:20.712Z,71.20
2022-09-22T14:57:13.954Z,71.25
2022-09-22T15:00:24.385Z,70.70
2022-09-22T15:03:06.891Z,71.60
2022-09-22T15:05:57.945Z,70.00
2022-09-22T15:08:40.137Z,70.25
2022-09-22T15:11:28.767Z,71.05
2022-09-22T15:14:58.800Z,70.05
2022-09-22T15:18:06.794Z,71.32
2022-09-22T15:21:06.647Z,70.83
2022-09-22T15:23:56.754Z,70.18
2022-09-22T15:26:46.717Z,70.17
2022-09-22T15:29:41.613Z,70.75
2022-09-22T15:32:30.781Z,70.67
2022-09-22T15:35:20.703Z,71.70
2022-09-22T15:38:09.721Z,71.26
2022-09-22T15:40:52.082Z,71.55
2022-09-22T15:43:40.927Z,71.63
2022-09-22T15:46:34.769Z,72.19
2022-09-22T15:49:29.892Z,70.68
2022-09-22T15:52:18.883Z,72.32
2022-09-22T15:55:01.656Z,71.55
2022-09-22T15:57:50.985Z,72.54
2022-09-22T16:00:33.292Z,71.99
2022-09-22T16:03:48.950Z,71.53
2022-09-22T16:06:34.021Z,73.21
2022-09-22T16:09:29.932Z,72.99
2022-09-22T16:12:23.549Z,72.68
2022-09-22T16:15:06.949Z,71.56
2022-09-22T16:17:49.293Z,72.60
2022-09-22T16:20:37.960Z,72.30
2022-09-22T16:23:29.012Z,72.35
2022-09-22T16:26:12.283Z,72.16
2022-09-22T16:29:01.025Z,72.09
2022-09-22T16:31:46.365Z,73.09
2022-09-22T16:34:35.041Z,72.92
2022-09-22T16:37:24.155Z,72.48
2022-09-22T16:40:14.380Z,71.50
2022-09-22T16:42:57.114Z,72.02
2022-09-22T16:46:04.031Z,72.74
2022-09-22T16:48:46.376Z,72.33
2022-09-22T16:51:35.894Z,72.39
2022-09-22T16:54:20.931Z,72.26
2022-09-22T16:57:11.374Z,72.09
2022-09-22T16:59:53.743Z,72.83
2022-09-22T17:02:43.994Z,72.46
2022-09-22T17:05:34.547Z,72.83
2022-09-22T17:08:19.413Z,72.73
2022-09-22T17:11:08.025Z,72.28
2022-09-22T17:13:52.047Z,72.76
2022-09-22T17:16:45.965Z,73.45
2022-09-22T17:19:35.930Z,72.96
2022-09-22T17:22:25.984Z,72.96
2022-09-22T17:25:15.986Z,72.94
2022-09-22T17:27:59.140Z,73.96
2022-09-22T17:30:54.922Z,72.84
2022-09-22T17:33:53.443Z,73.58
2022-09-22T17:36:37.304Z,73.44
2022-09-22T17:39:25.943Z,72.52
2022-09-22T17:42:08.413Z,73.05
2022-09-22T17:44:56.956Z,73.38
2022-09-22T17:47:57.866Z,72.96
2022-09-22T17:51:04.884Z,73.38
2022-09-22T17:54:11.952Z,73.55
2022-09-22T17:56:54.196Z,73.08
2022-09-22T17:59:43.951Z,72.68
2022-09-22T18:02:28.392Z,73.70
2022-09-22T18:05:27.144Z,73.62
2022-09-22T18:08:18.287Z,73.92
2022-09-22T18:11:00.841Z,74.86
2022-09-22T18:13:51.668Z,73.38
2022-09-22T18:16:40.916Z,74.09
2022-09-22T18:19:29.828Z,73.73
2022-09-22T18:22:15.332Z,74.39
2022-09-22T18:25:04.913Z,74.66
2022-09-22T18:27:49.299Z,74.26
2022-09-22T18:30:38.946Z,74.30
2022-09-22T18:33:27.830Z,74.02
2022-09-22T18:36:17.365Z,73.75
2022-09-22T18:39:00.204Z,73.48
2022-09-22T18:41:48.980Z,73.17
2022-09-22T18:44:33.491Z,72.97
2022-09-22T18:47:25.908Z,73.29
2022-09-22T18:50:14.818Z,72.54
2022-09-22T18:52:57.783Z,73.47
2022-09-22T18:55:46.889Z,73.52
2022-09-22T18:58:29.077Z,73.79
2022-09-22T19:01:17.890Z,72.41
2022-09-22T19:04:06.886Z,72.77
2022-09-22T19:07:13.914Z,72.37
2022-09-22T19:09:56.102Z,72.47
2022-09-22T19:12:44.902Z,71.98
2022-09-22T19:15:27.506Z,71.80
2022-09-22T19:18:17.924Z,71.88
2022-09-22T19:21:14.284Z,72.02
2022-09-22T19:23:57.257Z,72.30
2022-09-22T19:26:49.908Z,71.39
2022-09-22T19:29:32.335Z,71.96
2022-09-22T19:32:20.967Z,72.67
2022-09-22T19:35:03.213Z,72.90
2022-09-22T19:37:52.254Z,72.64
2022-09-22T19:40:35.160Z,73.06
2022-09-22T19:43:23.927Z,73.41
2022-09-22T19:46:06.419Z,74.88
2022-09-22T19:48:55.910Z,75.20
2022-09-22T19:51:38.429Z,74.57
2022-09-22T19:54:28.903Z,74.73
2022-09-22T19:57:11.321Z,74.54
2022-09-22T19:59:59.909Z,74.88
2022-09-22T20:02:52.952Z,75.06
2022-09-22T20:05:44.819Z,74.45
2022-09-22T20:08:34.819Z,75.09
2022-09-22T20:11:26.584Z,74.99
2022-09-22T20:14:32.907Z,75.46
2022-09-22T20:17:21.208Z,74.77
2022-09-22T20:20:04.154Z,75.57
2022-09-22T20:22:54.827Z,75.55
2022-09-22T20:25:46.918Z,75.50
2022-09-22T20:28:28.762Z,75.48
2022-09-22T20:31:17.960Z,75.50
2022-09-22T20:34:00.217Z,75.38
2022-09-22T20:36:50.826Z,76.29
2022-09-22T20:39:40.217Z,75.61
2022-09-22T20:42:22.361Z,75.61
2022-09-22T20:45:10.916Z,75.38
2022-09-22T20:47:59.789Z,74.79
2022-09-22T20:50:48.814Z,75.80
2022-09-22T20:53:31.065Z,75.46
2022-09-22T20:56:19.908Z,75.98
2022-09-22T20:59:02.102Z,75.38
2022-09-22T21:01:50.956Z,75.37
2022-09-22T21:04:33.233Z,75.66
2022-09-22T21:07:21.811Z,75.46
2022-09-22T21:10:28.813Z,75.69
2022-09-22T21:13:10.770Z,75.09
2022-09-22T21:15:52.956Z,76.14
2022-09-22T21:18:35.679Z,75.83
2022-09-22T21:21:24.846Z,76.01
2022-09-22T21:24:08.216Z,76.69
2022-09-22T21:26:56.886Z,75.32
2022-09-22T21:29:52.771Z,75.92
2022-09-22T21:32:40.895Z,75.65
2022-09-22T21:35:23.110Z,75.42
2022-09-22T21:38:10.892Z,75.33
2022-09-22T21:40:53.167Z,75.57
2022-09-22T21:43:41.908Z,75.39
2022-09-22T21:46:32.122Z,75.45
2022-09-22T21:49:20.918Z,74.99
2022-09-22T21:52:03.224Z,75.24
2022-09-22T21:54:51.817Z,74.71
2022-09-22T21:57:40.899Z,74.67
2022-09-22T22:00:50.741Z,74.86
2022-09-22T22:03:37.940Z,75.15
2022-09-22T22:06:31.928Z,74.40
2022-09-22T22:09:26.819Z,74.56
2022-09-22T22:12:15.173Z,73.85
2022-09-22T22:14:56.813Z,74.44
2022-09-22T22:17:45.184Z,74.07
2022-09-22T22:20:27.979Z,73.88
2022-09-22T22:23:10.455Z,74.59
2022-09-22T22:26:00.890Z,75.03
2022-09-22T22:28:43.853Z,74.29
2022-09-22T22:31:36.887Z,74.22
2022-09-22T22:34:22.008Z,74.18
2022-09-22T22:37:16.890Z,74.79
2022-09-22T22:39:59.121Z,75.02
2022-09-22T22:42:47.893Z,74.59
2022-09-22T22:45:30.078Z,75.26
2022-09-22T22:48:18.813Z,75.00
2022-09-22T22:51:07.941Z,75.56
2022-09-22T22:53:50.182Z,75.42
2022-09-22T22:56:41.760Z,75.72
2022-09-22T22:59:31.817Z,75.38
2022-09-22T23:02:26.951Z,74.87
2022-09-22T23:05:09.627Z,75.10
2022-09-22T23:07:58.917Z,75.45
2022-09-22T23:10:41.100Z,75.33
2022-09-22T23:13:30.922Z,75.33
2022-09-22T23:16:15.103Z,75.24
2022-09-22T23:19:05.834Z,75.33
2022-09-22T23:21:54.957Z,75.62
2022-09-22T23:24:37.169Z,75.09
2022-09-22T23:27:25.903Z,75.61
2022-09-22T23:30:14.812Z,75.48
2022-09-22T23:33:04.793Z,76.07
2022-09-22T23:35:53.882Z,75.92
2022-09-22T23:38:37.167Z,75.57
2022-09-22T23:41:26.959Z,75.39
2022-09-22T23:44:15.201Z,74.49
2022-09-22T23:46:57.241Z,74.58
2022-09-22T23:49:45.215Z,74.57
2022-09-22T23:52:26.911Z,74.40
2022-09-22T23:55:16.175Z,75.07
2022-09-22T23:57:57.914Z,74.71
